This is the latest recevied weather packets stored in our database for station/object WA9NNN-10. If no packets are shown the sender has not sent any weather packets the latest 10 day(s).
| Time | Temp. | Humidity | Pressure | Rain* | Wind** | Luminosity | Snow |
|---|---|---|---|---|---|---|---|
| 1777567897 | 11.67° C | 65% | 1016.4 hPa | 0 mm | - | - | - |
| 1777567596 | 12.22° C | 64% | 1016.3 hPa | 0 mm | - | - | - |
| 1777567297 | 12.22° C | 64% | 1016.5 hPa | 0 mm | - | - | - |
| 1777566996 | 12.22° C | 63% | 1016.5 hPa | 0 mm | - | - | - |
| 1777566697 | 12.78° C | 61% | 1016.5 hPa | 0 mm | - | - | - |
| 1777566397 | 13.33° C | 57% | 1016.4 hPa | 0 mm | - | - | - |
| 1777566097 | 13.89° C | 53% | 1016.5 hPa | 0 mm | - | - | - |
| 1777565797 | 14.44° C | 41% | 1016.5 hPa | 0 mm | - | - | - |
| 1777565497 | 13.89° C | 41% | 1016.5 hPa | 0 mm | - | - | - |
| 1777565197 | 13.89° C | 42% | 1016.3 hPa | 0 mm | - | - | - |
| 1777564897 | 13.89° C | 44% | 1016.5 hPa | 0 mm | - | - | - |
| 1777564596 | 13.89° C | 44% | 1016.6 hPa | 0 mm | - | - | - |
| 1777564297 | 14.44° C | 44% | 1016.6 hPa | 0 mm | - | - | - |
| 1777563996 | 13.89° C | 45% | 1016.6 hPa | 0 mm | - | - | - |
| 1777563697 | 13.89° C | 46% | 1016.6 hPa | 0 mm | - | - | - |
| 1777563397 | 13.89° C | 46% | 1016.5 hPa | 0 mm | - | - | - |
| 1777563097 | 13.89° C | 46% | 1016.6 hPa | 0 mm | - | - | - |
| 1777562797 | 14.44° C | 47% | 1016.6 hPa | 0 mm | - | - | - |
| 1777562497 | 14.44° C | 47% | 1016.7 hPa | 0 mm | - | - | - |
| 1777562198 | 14.44° C | 48% | 1016.7 hPa | 0 mm | - | - | - |
| 1777561897 | 13.89° C | 50% | 1016.7 hPa | 0 mm | - | - | - |
| 1777561596 | 13.33° C | 53% | 1016.7 hPa | 0 mm | - | - | - |
| 1777561297 | 13.33° C | 55% | 1016.7 hPa | 0 mm | - | - | - |
| 1777560996 | 13.33° C | 58% | 1016.7 hPa | 0 mm | - | - | - |
| 1777560697 | 12.78° C | 58% | 1016.8 hPa | 0 mm | - | - | - |
* Rain latest hour (hover to see other rain measurements)
** Current wind speed in m/s (hover to see current wind gust speed)